sensor_id;sensor_type;location;lat;lon;timestamp;temperature;humidity
43772;HTU21D;59066;54.782;32.024;2023-08-06T00:01:16;24.49;75.28
43772;HTU21D;59066;54.782;32.024;2023-08-06T00:03:46;24.49;75.36
43772;HTU21D;59066;54.782;32.024;2023-08-06T00:06:13;24.50;75.32
43772;HTU21D;59066;54.782;32.024;2023-08-06T00:08:41;24.53;75.22
43772;HTU21D;59066;54.782;32.024;2023-08-06T00:11:08;24.53;75.22
43772;HTU21D;59066;54.782;32.024;2023-08-06T00:13:36;24.49;75.38
43772;HTU21D;59066;54.782;32.024;2023-08-06T00:16:11;24.49;75.55
43772;HTU21D;59066;54.782;32.024;2023-08-06T00:18:39;24.49;75.47
43772;HTU21D;59066;54.782;32.024;2023-08-06T00:21:09;24.50;75.43
43772;HTU21D;59066;54.782;32.024;2023-08-06T00:23:40;24.54;75.54
43772;HTU21D;59066;54.782;32.024;2023-08-06T00:26:07;24.58;75.42
43772;HTU21D;59066;54.782;32.024;2023-08-06T00:28:35;24.55;75.39
43772;HTU21D;59066;54.782;32.024;2023-08-06T00:31:02;24.61;75.24
43772;HTU21D;59066;54.782;32.024;2023-08-06T00:33:30;24.59;75.26
43772;HTU21D;59066;54.782;32.024;2023-08-06T00:35:57;24.54;75.47
43772;HTU21D;59066;54.782;32.024;2023-08-06T00:38:25;24.47;75.72
43772;HTU21D;59066;54.782;32.024;2023-08-06T00:40:52;24.49;75.83
43772;HTU21D;59066;54.782;32.024;2023-08-06T00:43:20;24.47;75.83
43772;HTU21D;59066;54.782;32.024;2023-08-06T00:45:48;24.41;76.20
43772;HTU21D;59066;54.782;32.024;2023-08-06T00:48:15;24.42;76.08
43772;HTU21D;59066;54.782;32.024;2023-08-06T00:50:43;24.43;76.14
43772;HTU21D;59066;54.782;32.024;2023-08-06T00:53:10;24.47;76.02
43772;HTU21D;59066;54.782;32.024;2023-08-06T00:55:41;24.47;75.95
43772;HTU21D;59066;54.782;32.024;2023-08-06T00:58:11;24.44;76.16
43772;HTU21D;59066;54.782;32.024;2023-08-06T01:03:34;24.59;75.56
43772;HTU21D;59066;54.782;32.024;2023-08-06T01:06:01;24.62;75.40
43772;HTU21D;59066;54.782;32.024;2023-08-06T01:11:29;24.66;75.34
43772;HTU21D;59066;54.782;32.024;2023-08-06T01:14:23;24.68;75.22
43772;HTU21D;59066;54.782;32.024;2023-08-06T01:16:52;24.66;75.12
43772;HTU21D;59066;54.782;32.024;2023-08-06T01:19:21;24.66;75.15
43772;HTU21D;59066;54.782;32.024;2023-08-06T01:21:49;24.68;75.12
43772;HTU21D;59066;54.782;32.024;2023-08-06T01:24:16;24.70;75.13
43772;HTU21D;59066;54.782;32.024;2023-08-06T01:26:51;24.69;75.05
43772;HTU21D;59066;54.782;32.024;2023-08-06T01:31:48;24.68;74.97
43772;HTU21D;59066;54.782;32.024;2023-08-06T01:34:21;24.68;74.90
43772;HTU21D;59066;54.782;32.024;2023-08-06T01:36:50;24.63;74.89
43772;HTU21D;59066;54.782;32.024;2023-08-06T01:39:18;24.55;74.90
43772;HTU21D;59066;54.782;32.024;2023-08-06T01:41:48;24.48;74.95
43772;HTU21D;59066;54.782;32.024;2023-08-06T01:44:16;24.45;74.88
43772;HTU21D;59066;54.782;32.024;2023-08-06T01:46:44;24.42;74.89
43772;HTU21D;59066;54.782;32.024;2023-08-06T01:49:11;24.39;74.99
43772;HTU21D;59066;54.782;32.024;2023-08-06T01:51:39;24.33;75.03
43772;HTU21D;59066;54.782;32.024;2023-08-06T01:54:06;24.29;75.23
43772;HTU21D;59066;54.782;32.024;2023-08-06T01:56:33;24.29;75.19
43772;HTU21D;59066;54.782;32.024;2023-08-06T01:59:01;24.27;75.05
43772;HTU21D;59066;54.782;32.024;2023-08-06T02:01:30;24.21;75.12
43772;HTU21D;59066;54.782;32.024;2023-08-06T02:03:58;24.18;75.21
43772;HTU21D;59066;54.782;32.024;2023-08-06T02:06:25;24.14;75.31
43772;HTU21D;59066;54.782;32.024;2023-08-06T02:08:53;24.10;75.45
43772;HTU21D;59066;54.782;32.024;2023-08-06T02:11:20;24.06;75.51
43772;HTU21D;59066;54.782;32.024;2023-08-06T02:13:47;24.02;75.73
43772;HTU21D;59066;54.782;32.024;2023-08-06T02:16:18;23.98;75.80
43772;HTU21D;59066;54.782;32.024;2023-08-06T02:18:45;23.92;76.10
43772;HTU21D;59066;54.782;32.024;2023-08-06T02:21:24;23.87;76.16
43772;HTU21D;59066;54.782;32.024;2023-08-06T02:23:52;23.88;76.41
43772;HTU21D;59066;54.782;32.024;2023-08-06T02:26:20;23.85;76.47
43772;HTU21D;59066;54.782;32.024;2023-08-06T02:28:47;23.87;76.54
43772;HTU21D;59066;54.782;32.024;2023-08-06T02:31:14;23.86;76.57
43772;HTU21D;59066;54.782;32.024;2023-08-06T02:33:42;23.87;76.53
43772;HTU21D;59066;54.782;32.024;2023-08-06T02:36:10;23.90;76.66
43772;HTU21D;59066;54.782;32.024;2023-08-06T02:38:37;23.88;76.69
43772;HTU21D;59066;54.782;32.024;2023-08-06T02:41:05;23.90;76.70
43772;HTU21D;59066;54.782;32.024;2023-08-06T02:43:32;23.89;76.83
43772;HTU21D;59066;54.782;32.024;2023-08-06T02:46:01;23.86;77.11
43772;HTU21D;59066;54.782;32.024;2023-08-06T02:48:28;23.89;77.04
43772;HTU21D;59066;54.782;32.024;2023-08-06T02:51:00;23.88;77.38
43772;HTU21D;59066;54.782;32.024;2023-08-06T02:53:29;23.91;77.19
43772;HTU21D;59066;54.782;32.024;2023-08-06T02:56:00;23.97;77.19
43772;HTU21D;59066;54.782;32.024;2023-08-06T02:58:36;24.02;77.02
43772;HTU21D;59066;54.782;32.024;2023-08-06T03:01:14;24.03;76.82
43772;HTU21D;59066;54.782;32.024;2023-08-06T03:03:48;24.08;76.89
43772;HTU21D;59066;54.782;32.024;2023-08-06T03:06:22;24.10;76.88
43772;HTU21D;59066;54.782;32.024;2023-08-06T03:08:52;24.14;76.95
43772;HTU21D;59066;54.782;32.024;2023-08-06T03:11:20;24.18;76.90
43772;HTU21D;59066;54.782;32.024;2023-08-06T03:13:52;24.21;76.66
43772;HTU21D;59066;54.782;32.024;2023-08-06T03:16:20;24.17;77.23
43772;HTU21D;59066;54.782;32.024;2023-08-06T03:18:47;24.21;77.24
43772;HTU21D;59066;54.782;32.024;2023-08-06T03:21:15;24.21;77.24
43772;HTU21D;59066;54.782;32.024;2023-08-06T03:23:43;24.27;77.09
43772;HTU21D;59066;54.782;32.024;2023-08-06T03:26:13;24.31;77.08
43772;HTU21D;59066;54.782;32.024;2023-08-06T03:28:41;24.27;77.21
43772;HTU21D;59066;54.782;32.024;2023-08-06T03:31:09;24.30;77.26
43772;HTU21D;59066;54.782;32.024;2023-08-06T03:33:41;24.30;77.27
43772;HTU21D;59066;54.782;32.024;2023-08-06T03:36:13;24.34;77.24
43772;HTU21D;59066;54.782;32.024;2023-08-06T03:38:41;24.32;77.14
43772;HTU21D;59066;54.782;32.024;2023-08-06T03:41:11;24.33;77.30
43772;HTU21D;59066;54.782;32.024;2023-08-06T03:43:39;24.36;77.13
43772;HTU21D;59066;54.782;32.024;2023-08-06T03:46:11;24.40;77.13
43772;HTU21D;59066;54.782;32.024;2023-08-06T03:48:38;24.45;76.94
43772;HTU21D;59066;54.782;32.024;2023-08-06T03:51:06;24.51;76.76
43772;HTU21D;59066;54.782;32.024;2023-08-06T03:53:34;24.55;76.68
43772;HTU21D;59066;54.782;32.024;2023-08-06T03:56:02;24.57;76.52
43772;HTU21D;59066;54.782;32.024;2023-08-06T03:58:31;24.55;76.50
43772;HTU21D;59066;54.782;32.024;2023-08-06T04:01:02;24.58;76.57
43772;HTU21D;59066;54.782;32.024;2023-08-06T04:03:43;24.61;76.41
43772;HTU21D;59066;54.782;32.024;2023-08-06T04:06:11;24.65;76.24
43772;HTU21D;59066;54.782;32.024;2023-08-06T04:08:38;24.66;76.23
43772;HTU21D;59066;54.782;32.024;2023-08-06T04:11:07;24.73;75.92
43772;HTU21D;59066;54.782;32.024;2023-08-06T04:13:34;24.78;75.63
43772;HTU21D;59066;54.782;32.024;2023-08-06T04:16:02;24.85;75.32
43772;HTU21D;59066;54.782;32.024;2023-08-06T04:18:31;24.88;74.90
43772;HTU21D;59066;54.782;32.024;2023-08-06T04:20:59;24.95;74.76
43772;HTU21D;59066;54.782;32.024;2023-08-06T04:23:26;24.99;74.36
43772;HTU21D;59066;54.782;32.024;2023-08-06T04:25:58;25.02;73.93
43772;HTU21D;59066;54.782;32.024;2023-08-06T04:28:30;25.03;73.66
43772;HTU21D;59066;54.782;32.024;2023-08-06T04:30:59;25.08;73.73
43772;HTU21D;59066;54.782;32.024;2023-08-06T04:33:29;25.13;73.22
43772;HTU21D;59066;54.782;32.024;2023-08-06T04:35:59;25.17;73.09
43772;HTU21D;59066;54.782;32.024;2023-08-06T04:38:27;25.20;72.87
43772;HTU21D;59066;54.782;32.024;2023-08-06T04:40:55;25.20;72.54
43772;HTU21D;59066;54.782;32.024;2023-08-06T04:43:24;25.29;72.24
43772;HTU21D;59066;54.782;32.024;2023-08-06T04:45:54;25.35;71.87
43772;HTU21D;59066;54.782;32.024;2023-08-06T04:48:22;25.40;71.55
43772;HTU21D;59066;54.782;32.024;2023-08-06T04:50:50;25.46;71.33
43772;HTU21D;59066;54.782;32.024;2023-08-06T04:53:18;25.50;71.01
43772;HTU21D;59066;54.782;32.024;2023-08-06T04:55:45;25.53;70.77
43772;HTU21D;59066;54.782;32.024;2023-08-06T04:58:13;25.52;70.66
43772;HTU21D;59066;54.782;32.024;2023-08-06T05:00:41;25.53;70.56
43772;HTU21D;59066;54.782;32.024;2023-08-06T05:03:08;25.57;70.45
43772;HTU21D;59066;54.782;32.024;2023-08-06T05:05:35;25.59;70.53
43772;HTU21D;59066;54.782;32.024;2023-08-06T05:08:03;25.71;70.35
43772;HTU21D;59066;54.782;32.024;2023-08-06T05:10:30;25.75;69.97
43772;HTU21D;59066;54.782;32.024;2023-08-06T05:12:58;25.80;69.64
43772;HTU21D;59066;54.782;32.024;2023-08-06T05:15:25;25.86;69.71
43772;HTU21D;59066;54.782;32.024;2023-08-06T05:17:53;25.94;69.44
43772;HTU21D;59066;54.782;32.024;2023-08-06T05:20:20;25.96;69.04
43772;HTU21D;59066;54.782;32.024;2023-08-06T05:22:48;25.99;68.95
43772;HTU21D;59066;54.782;32.024;2023-08-06T05:25:15;26.06;68.81
43772;HTU21D;59066;54.782;32.024;2023-08-06T05:27:43;26.17;68.61
43772;HTU21D;59066;54.782;32.024;2023-08-06T05:30:10;26.24;68.44
43772;HTU21D;59066;54.782;32.024;2023-08-06T05:32:38;26.30;68.40
43772;HTU21D;59066;54.782;32.024;2023-08-06T05:35:06;26.39;68.32
43772;HTU21D;59066;54.782;32.024;2023-08-06T05:37:33;26.47;68.24
43772;HTU21D;59066;54.782;32.024;2023-08-06T05:40:01;26.52;68.16
43772;HTU21D;59066;54.782;32.024;2023-08-06T05:42:29;26.61;67.84
43772;HTU21D;59066;54.782;32.024;2023-08-06T05:44:57;26.62;67.59
43772;HTU21D;59066;54.782;32.024;2023-08-06T05:47:24;26.65;67.36
43772;HTU21D;59066;54.782;32.024;2023-08-06T05:49:52;26.70;67.20
43772;HTU21D;59066;54.782;32.024;2023-08-06T05:52:19;26.77;67.14
43772;HTU21D;59066;54.782;32.024;2023-08-06T05:54:47;26.82;66.91
43772;HTU21D;59066;54.782;32.024;2023-08-06T05:57:14;26.89;66.94
43772;HTU21D;59066;54.782;32.024;2023-08-06T05:59:42;26.98;66.81
43772;HTU21D;59066;54.782;32.024;2023-08-06T06:02:09;27.05;66.72
43772;HTU21D;59066;54.782;32.024;2023-08-06T06:04:37;27.04;66.65
43772;HTU21D;59066;54.782;32.024;2023-08-06T06:07:04;27.10;66.41
43772;HTU21D;59066;54.782;32.024;2023-08-06T06:09:32;27.19;66.25
43772;HTU21D;59066;54.782;32.024;2023-08-06T06:11:59;27.26;65.67
43772;HTU21D;59066;54.782;32.024;2023-08-06T06:14:27;27.31;65.41
43772;HTU21D;59066;54.782;32.024;2023-08-06T06:16:54;27.38;65.07
43772;HTU21D;59066;54.782;32.024;2023-08-06T06:19:22;27.44;64.50
43772;HTU21D;59066;54.782;32.024;2023-08-06T06:21:49;27.53;64.37
43772;HTU21D;59066;54.782;32.024;2023-08-06T06:24:16;27.55;64.08
43772;HTU21D;59066;54.782;32.024;2023-08-06T06:26:44;27.57;63.21
43772;HTU21D;59066;54.782;32.024;2023-08-06T06:29:11;27.63;63.21
43772;HTU21D;59066;54.782;32.024;2023-08-06T06:31:39;27.75;63.29
43772;HTU21D;59066;54.782;32.024;2023-08-06T06:34:06;27.85;62.98
43772;HTU21D;59066;54.782;32.024;2023-08-06T06:36:34;27.96;62.97
43772;HTU21D;59066;54.782;32.024;2023-08-06T06:39:01;28.04;62.95
43772;HTU21D;59066;54.782;32.024;2023-08-06T06:41:29;28.16;62.71
43772;HTU21D;59066;54.782;32.024;2023-08-06T06:44:05;28.31;62.35
43772;HTU21D;59066;54.782;32.024;2023-08-06T06:46:33;28.35;61.44
43772;HTU21D;59066;54.782;32.024;2023-08-06T06:49:00;28.43;60.98
43772;HTU21D;59066;54.782;32.024;2023-08-06T06:51:27;28.54;60.83
43772;HTU21D;59066;54.782;32.024;2023-08-06T06:53:55;28.59;60.41
43772;HTU21D;59066;54.782;32.024;2023-08-06T06:56:22;28.70;60.22
43772;HTU21D;59066;54.782;32.024;2023-08-06T06:58:50;28.76;59.96
43772;HTU21D;59066;54.782;32.024;2023-08-06T07:01:17;28.80;59.53
43772;HTU21D;59066;54.782;32.024;2023-08-06T07:03:44;28.87;59.42
43772;HTU21D;59066;54.782;32.024;2023-08-06T07:06:12;28.90;58.82
43772;HTU21D;59066;54.782;32.024;2023-08-06T07:08:39;28.97;58.34
43772;HTU21D;59066;54.782;32.024;2023-08-06T07:11:07;28.99;57.33
43772;HTU21D;59066;54.782;32.024;2023-08-06T07:13:34;29.04;57.32
43772;HTU21D;59066;54.782;32.024;2023-08-06T07:16:02;29.17;56.97
43772;HTU21D;59066;54.782;32.024;2023-08-06T07:18:30;29.28;56.84
43772;HTU21D;59066;54.782;32.024;2023-08-06T07:20:57;29.32;56.03
43772;HTU21D;59066;54.782;32.024;2023-08-06T07:23:25;29.34;55.51
43772;HTU21D;59066;54.782;32.024;2023-08-06T07:25:53;29.33;54.09
43772;HTU21D;59066;54.782;32.024;2023-08-06T07:28:20;29.26;53.80
43772;HTU21D;59066;54.782;32.024;2023-08-06T07:30:48;29.24;52.79
43772;HTU21D;59066;54.782;32.024;2023-08-06T07:33:15;29.34;52.65
43772;HTU21D;59066;54.782;32.024;2023-08-06T07:35:43;29.35;52.81
43772;HTU21D;59066;54.782;32.024;2023-08-06T07:38:10;29.39;52.19
43772;HTU21D;59066;54.782;32.024;2023-08-06T07:40:38;29.50;52.40
43772;HTU21D;59066;54.782;32.024;2023-08-06T07:43:05;29.52;51.87
43772;HTU21D;59066;54.782;32.024;2023-08-06T07:45:34;29.58;51.56
43772;HTU21D;59066;54.782;32.024;2023-08-06T07:48:03;29.72;50.53
43772;HTU21D;59066;54.782;32.024;2023-08-06T07:50:31;29.74;49.14
43772;HTU21D;59066;54.782;32.024;2023-08-06T07:52:58;29.85;48.89
43772;HTU21D;59066;54.782;32.024;2023-08-06T07:55:26;29.95;48.59
43772;HTU21D;59066;54.782;32.024;2023-08-06T07:57:54;30.03;47.71
43772;HTU21D;59066;54.782;32.024;2023-08-06T08:00:21;30.04;47.76
43772;HTU21D;59066;54.782;32.024;2023-08-06T08:02:50;30.16;47.63
43772;HTU21D;59066;54.782;32.024;2023-08-06T08:05:18;30.28;47.36
43772;HTU21D;59066;54.782;32.024;2023-08-06T08:07:45;30.40;47.01
43772;HTU21D;59066;54.782;32.024;2023-08-06T08:10:13;30.49;46.30
43772;HTU21D;59066;54.782;32.024;2023-08-06T08:12:40;30.49;45.91
43772;HTU21D;59066;54.782;32.024;2023-08-06T08:15:08;30.46;45.86
43772;HTU21D;59066;54.782;32.024;2023-08-06T08:17:35;30.51;45.94
43772;HTU21D;59066;54.782;32.024;2023-08-06T08:20:03;30.61;45.30
43772;HTU21D;59066;54.782;32.024;2023-08-06T08:22:31;30.72;45.59
43772;HTU21D;59066;54.782;32.024;2023-08-06T08:24:58;30.82;45.60
43772;HTU21D;59066;54.782;32.024;2023-08-06T08:27:26;30.92;45.45
43772;HTU21D;59066;54.782;32.024;2023-08-06T08:29:53;30.92;45.19
43772;HTU21D;59066;54.782;32.024;2023-08-06T08:32:20;30.99;45.11
43772;HTU21D;59066;54.782;32.024;2023-08-06T08:34:48;30.98;45.16
43772;HTU21D;59066;54.782;32.024;2023-08-06T08:37:15;30.93;44.77
43772;HTU21D;59066;54.782;32.024;2023-08-06T08:39:43;30.94;44.73
43772;HTU21D;59066;54.782;32.024;2023-08-06T08:42:10;31.02;44.22
43772;HTU21D;59066;54.782;32.024;2023-08-06T08:44:38;30.99;44.09
43772;HTU21D;59066;54.782;32.024;2023-08-06T08:47:06;30.96;44.03
43772;HTU21D;59066;54.782;32.024;2023-08-06T08:49:37;31.02;43.77
43772;HTU21D;59066;54.782;32.024;2023-08-06T08:52:04;31.07;43.90
43772;HTU21D;59066;54.782;32.024;2023-08-06T08:54:34;31.13;43.83
43772;HTU21D;59066;54.782;32.024;2023-08-06T08:57:02;31.14;43.71
43772;HTU21D;59066;54.782;32.024;2023-08-06T08:59:33;31.14;43.44
43772;HTU21D;59066;54.782;32.024;2023-08-06T09:02:01;31.08;43.61
43772;HTU21D;59066;54.782;32.024;2023-08-06T09:04:30;31.10;43.39
43772;HTU21D;59066;54.782;32.024;2023-08-06T09:07:00;30.93;43.39
43772;HTU21D;59066;54.782;32.024;2023-08-06T09:09:31;30.91;44.00
43772;HTU21D;59066;54.782;32.024;2023-08-06T09:12:01;30.87;43.71
43772;HTU21D;59066;54.782;32.024;2023-08-06T09:14:29;30.95;44.01
43772;HTU21D;59066;54.782;32.024;2023-08-06T09:16:57;31.14;43.33
43772;HTU21D;59066;54.782;32.024;2023-08-06T09:19:26;31.27;43.36
43772;HTU21D;59066;54.782;32.024;2023-08-06T09:21:55;31.30;42.32
43772;HTU21D;59066;54.782;32.024;2023-08-06T09:24:23;31.45;42.06
43772;HTU21D;59066;54.782;32.024;2023-08-06T09:26:51;31.49;41.52
43772;HTU21D;59066;54.782;32.024;2023-08-06T09:29:18;31.36;41.60
43772;HTU21D;59066;54.782;32.024;2023-08-06T09:31:48;31.34;42.13
43772;HTU21D;59066;54.782;32.024;2023-08-06T09:34:23;31.49;41.92
43772;HTU21D;59066;54.782;32.024;2023-08-06T09:36:52;31.56;41.75
43772;HTU21D;59066;54.782;32.024;2023-08-06T09:39:30;31.52;40.97
43772;HTU21D;59066;54.782;32.024;2023-08-06T09:41:59;31.51;41.02
43772;HTU21D;59066;54.782;32.024;2023-08-06T09:44:28;31.69;40.55
43772;HTU21D;59066;54.782;32.024;2023-08-06T09:47:03;31.64;40.88
43772;HTU21D;59066;54.782;32.024;2023-08-06T09:52:06;31.72;40.71
43772;HTU21D;59066;54.782;32.024;2023-08-06T09:54:36;31.83;40.52
43772;HTU21D;59066;54.782;32.024;2023-08-06T09:57:05;31.90;40.21
43772;HTU21D;59066;54.782;32.024;2023-08-06T09:59:33;31.80;40.61
43772;HTU21D;59066;54.782;32.024;2023-08-06T10:02:02;32.02;40.69
43772;HTU21D;59066;54.782;32.024;2023-08-06T10:04:34;32.10;40.52
43772;HTU21D;59066;54.782;32.024;2023-08-06T10:07:07;32.15;40.30
43772;HTU21D;59066;54.782;32.024;2023-08-06T10:09:34;32.55;40.35
43772;HTU21D;59066;54.782;32.024;2023-08-06T10:12:02;32.73;39.41
43772;HTU21D;59066;54.782;32.024;2023-08-06T10:14:35;32.59;39.80
43772;HTU21D;59066;54.782;32.024;2023-08-06T10:17:04;32.57;40.27
43772;HTU21D;59066;54.782;32.024;2023-08-06T10:19:32;32.58;40.10
43772;HTU21D;59066;54.782;32.024;2023-08-06T10:22:14;32.48;39.82
43772;HTU21D;59066;54.782;32.024;2023-08-06T10:27:21;32.48;39.94
43772;HTU21D;59066;54.782;32.024;2023-08-06T10:29:52;32.42;40.23
43772;HTU21D;59066;54.782;32.024;2023-08-06T10:32:20;32.70;40.26
43772;HTU21D;59066;54.782;32.024;2023-08-06T10:34:56;32.84;40.10
43772;HTU21D;59066;54.782;32.024;2023-08-06T10:37:37;32.83;39.74
43772;HTU21D;59066;54.782;32.024;2023-08-06T10:40:06;32.72;40.00
43772;HTU21D;59066;54.782;32.024;2023-08-06T10:42:35;32.83;39.98
43772;HTU21D;59066;54.782;32.024;2023-08-06T10:45:15;33.14;39.03
43772;HTU21D;59066;54.782;32.024;2023-08-06T10:47:44;33.41;39.20
43772;HTU21D;59066;54.782;32.024;2023-08-06T10:50:16;33.76;38.46
43772;HTU21D;59066;54.782;32.024;2023-08-06T10:52:45;34.09;37.93
43772;HTU21D;59066;54.782;32.024;2023-08-06T10:55:14;33.99;36.92
43772;HTU21D;59066;54.782;32.024;2023-08-06T10:57:48;33.86;37.21
43772;HTU21D;59066;54.782;32.024;2023-08-06T11:00:16;33.78;37.63
43772;HTU21D;59066;54.782;32.024;2023-08-06T11:02:44;34.11;37.21
43772;HTU21D;59066;54.782;32.024;2023-08-06T11:05:11;34.44;36.88
43772;HTU21D;59066;54.782;32.024;2023-08-06T11:07:39;34.91;36.43
43772;HTU21D;59066;54.782;32.024;2023-08-06T11:10:08;35.66;35.05
43772;HTU21D;59066;54.782;32.024;2023-08-06T11:12:37;35.58;33.33
43772;HTU21D;59066;54.782;32.024;2023-08-06T11:15:06;35.68;33.31
43772;HTU21D;59066;54.782;32.024;2023-08-06T11:17:34;36.00;31.95
43772;HTU21D;59066;54.782;32.024;2023-08-06T11:20:03;35.97;32.47
43772;HTU21D;59066;54.782;32.024;2023-08-06T11:22:32;35.85;32.18
43772;HTU21D;59066;54.782;32.024;2023-08-06T11:24:59;36.02;31.77
43772;HTU21D;59066;54.782;32.024;2023-08-06T11:27:29;35.82;31.56
43772;HTU21D;59066;54.782;32.024;2023-08-06T11:29:56;35.52;31.81
43772;HTU21D;59066;54.782;32.024;2023-08-06T11:32:24;35.29;32.03
43772;HTU21D;59066;54.782;32.024;2023-08-06T11:34:53;34.80;32.72
43772;HTU21D;59066;54.782;32.024;2023-08-06T11:37:22;34.67;32.76
43772;HTU21D;59066;54.782;32.024;2023-08-06T11:39:52;34.69;32.96
43772;HTU21D;59066;54.782;32.024;2023-08-06T11:42:19;34.78;32.87
43772;HTU21D;59066;54.782;32.024;2023-08-06T11:44:47;34.99;32.55
43772;HTU21D;59066;54.782;32.024;2023-08-06T11:47:16;35.03;32.21
43772;HTU21D;59066;54.782;32.024;2023-08-06T11:49:48;35.67;32.06
43772;HTU21D;59066;54.782;32.024;2023-08-06T11:52:18;35.70;31.35
43772;HTU21D;59066;54.782;32.024;2023-08-06T11:55:03;35.82;31.03
43772;HTU21D;59066;54.782;32.024;2023-08-06T11:57:34;36.63;30.81
43772;HTU21D;59066;54.782;32.024;2023-08-06T12:00:10;37.06;29.64
43772;HTU21D;59066;54.782;32.024;2023-08-06T12:02:45;37.62;28.97
43772;HTU21D;59066;54.782;32.024;2023-08-06T12:05:19;37.40;28.55
43772;HTU21D;59066;54.782;32.024;2023-08-06T12:07:54;37.78;28.34
43772;HTU21D;59066;54.782;32.024;2023-08-06T12:10:24;37.96;27.53
43772;HTU21D;59066;54.782;32.024;2023-08-06T12:12:53;38.19;27.26
43772;HTU21D;59066;54.782;32.024;2023-08-06T12:15:20;37.70;27.16
43772;HTU21D;59066;54.782;32.024;2023-08-06T12:17:48;36.88;27.86
43772;HTU21D;59066;54.782;32.024;2023-08-06T12:20:15;36.36;28.55
43772;HTU21D;59066;54.782;32.024;2023-08-06T12:22:43;36.63;28.77
43772;HTU21D;59066;54.782;32.024;2023-08-06T12:25:13;37.40;27.65
43772;HTU21D;59066;54.782;32.024;2023-08-06T12:27:42;37.51;26.72
43772;HTU21D;59066;54.782;32.024;2023-08-06T12:30:10;37.50;26.48
43772;HTU21D;59066;54.782;32.024;2023-08-06T12:32:38;37.44;26.20
43772;HTU21D;59066;54.782;32.024;2023-08-06T12:35:07;36.82;26.61
43772;HTU21D;59066;54.782;32.024;2023-08-06T12:37:35;36.29;27.49
43772;HTU21D;59066;54.782;32.024;2023-08-06T12:40:03;36.29;27.79
43772;HTU21D;59066;54.782;32.024;2023-08-06T12:42:50;36.43;28.26
43772;HTU21D;59066;54.782;32.024;2023-08-06T12:45:18;37.01;27.75
43772;HTU21D;59066;54.782;32.024;2023-08-06T12:47:48;37.65;27.51
43772;HTU21D;59066;54.782;32.024;2023-08-06T12:50:17;38.65;26.55
43772;HTU21D;59066;54.782;32.024;2023-08-06T12:52:45;39.24;25.52
43772;HTU21D;59066;54.782;32.024;2023-08-06T12:55:12;39.38;25.11
43772;HTU21D;59066;54.782;32.024;2023-08-06T12:57:39;40.26;24.47
43772;HTU21D;59066;54.782;32.024;2023-08-06T13:00:21;40.57;23.65
43772;HTU21D;59066;54.782;32.024;2023-08-06T13:02:48;40.98;23.30
43772;HTU21D;59066;54.782;32.024;2023-08-06T13:05:16;40.61;22.78
43772;HTU21D;59066;54.782;32.024;2023-08-06T13:07:43;40.66;22.95
43772;HTU21D;59066;54.782;32.024;2023-08-06T13:10:11;40.84;22.47
43772;HTU21D;59066;54.782;32.024;2023-08-06T13:12:39;40.36;22.17
43772;HTU21D;59066;54.782;32.024;2023-08-06T13:15:07;39.25;23.42
43772;HTU21D;59066;54.782;32.024;2023-08-06T13:17:34;38.58;24.24
43772;HTU21D;59066;54.782;32.024;2023-08-06T13:20:02;38.09;25.09
43772;HTU21D;59066;54.782;32.024;2023-08-06T13:22:29;37.32;26.37
43772;HTU21D;59066;54.782;32.024;2023-08-06T13:24:57;37.38;26.71
43772;HTU21D;59066;54.782;32.024;2023-08-06T13:27:24;37.12;27.07
43772;HTU21D;59066;54.782;32.024;2023-08-06T13:29:51;37.44;27.13
43772;HTU21D;59066;54.782;32.024;2023-08-06T13:32:19;38.17;26.67
43772;HTU21D;59066;54.782;32.024;2023-08-06T13:34:49;39.15;25.56
43772;HTU21D;59066;54.782;32.024;2023-08-06T13:37:17;39.56;25.08
43772;HTU21D;59066;54.782;32.024;2023-08-06T13:39:44;39.96;24.65
43772;HTU21D;59066;54.782;32.024;2023-08-06T13:42:11;40.73;24.02
43772;HTU21D;59066;54.782;32.024;2023-08-06T13:44:39;41.06;23.49
43772;HTU21D;59066;54.782;32.024;2023-08-06T13:47:06;41.14;23.04
43772;HTU21D;59066;54.782;32.024;2023-08-06T13:49:34;40.37;23.03
43772;HTU21D;59066;54.782;32.024;2023-08-06T13:52:01;40.23;23.08
43772;HTU21D;59066;54.782;32.024;2023-08-06T13:54:45;40.03;23.54
43772;HTU21D;59066;54.782;32.024;2023-08-06T13:57:12;40.14;23.62
43772;HTU21D;59066;54.782;32.024;2023-08-06T13:59:40;40.32;23.59
43772;HTU21D;59066;54.782;32.024;2023-08-06T14:02:08;40.36;23.56
43772;HTU21D;59066;54.782;32.024;2023-08-06T14:04:35;40.60;22.88
43772;HTU21D;59066;54.782;32.024;2023-08-06T14:07:04;40.66;22.65
43772;HTU21D;59066;54.782;32.024;2023-08-06T14:09:32;40.48;22.66
43772;HTU21D;59066;54.782;32.024;2023-08-06T14:12:01;39.58;23.36
43772;HTU21D;59066;54.782;32.024;2023-08-06T14:14:30;39.38;23.88
43772;HTU21D;59066;54.782;32.024;2023-08-06T14:16:57;39.12;24.35
43772;HTU21D;59066;54.782;32.024;2023-08-06T14:19:25;39.26;24.35
43772;HTU21D;59066;54.782;32.024;2023-08-06T14:21:53;39.42;24.12
43772;HTU21D;59066;54.782;32.024;2023-08-06T14:24:21;39.54;24.13
43772;HTU21D;59066;54.782;32.024;2023-08-06T14:26:48;39.40;24.37
43772;HTU21D;59066;54.782;32.024;2023-08-06T14:29:16;39.81;24.17
43772;HTU21D;59066;54.782;32.024;2023-08-06T14:31:43;40.53;23.70
43772;HTU21D;59066;54.782;32.024;2023-08-06T14:34:11;40.74;23.34
43772;HTU21D;59066;54.782;32.024;2023-08-06T14:36:38;40.69;23.27
43772;HTU21D;59066;54.782;32.024;2023-08-06T14:39:05;40.42;23.24
43772;HTU21D;59066;54.782;32.024;2023-08-06T14:41:33;39.94;24.01
43772;HTU21D;59066;54.782;32.024;2023-08-06T14:44:02;40.26;23.77
43772;HTU21D;59066;54.782;32.024;2023-08-06T14:46:30;40.29;23.65
43772;HTU21D;59066;54.782;32.024;2023-08-06T14:48:57;40.39;23.69
43772;HTU21D;59066;54.782;32.024;2023-08-06T14:51:25;40.53;23.36
43772;HTU21D;59066;54.782;32.024;2023-08-06T14:53:53;40.81;23.19
43772;HTU21D;59066;54.782;32.024;2023-08-06T14:56:20;41.09;22.67
43772;HTU21D;59066;54.782;32.024;2023-08-06T14:58:48;40.59;23.08
43772;HTU21D;59066;54.782;32.024;2023-08-06T15:01:15;40.31;23.46
43772;HTU21D;59066;54.782;32.024;2023-08-06T15:03:43;39.85;23.97
43772;HTU21D;59066;54.782;32.024;2023-08-06T15:06:10;39.62;24.29
43772;HTU21D;59066;54.782;32.024;2023-08-06T15:08:38;39.13;24.43
43772;HTU21D;59066;54.782;32.024;2023-08-06T15:11:05;39.18;24.55
43772;HTU21D;59066;54.782;32.024;2023-08-06T15:13:33;38.89;25.09
43772;HTU21D;59066;54.782;32.024;2023-08-06T15:16:00;39.27;24.81
43772;HTU21D;59066;54.782;32.024;2023-08-06T15:18:27;39.20;25.21
43772;HTU21D;59066;54.782;32.024;2023-08-06T15:20:55;39.52;25.04
43772;HTU21D;59066;54.782;32.024;2023-08-06T15:23:30;39.69;24.81
43772;HTU21D;59066;54.782;32.024;2023-08-06T15:25:57;39.59;24.90